Time;durP1;ratioP1;P1;durP2;ratioP2;P2;SDS_P1;SDS_P2;PMS_P1;PMS_P2;Temp;Humidity;BMP_temperature;BMP_pressure;BME280_temperature;BME280_humidity;BME280_pressure;Samples;Min_cycle;Max_cycle;Signal;HPM_P1;HPM_P2
2024/04/24 00:00:39;;;;;;;37.60;26.90;;;;;;;4.59;54.52;100036.17;111313;1252;21960;-69
2024/04/24 00:03:28;;;;;;;35.70;27.60;;;;;;;4.56;54.52;100030.25;111210;1252;22098;-69
2024/04/24 00:05:57;;;;;;;30.80;25.60;;;;;;;4.54;54.52;100026.68;111347;1252;22046;-68
2024/04/24 00:08:26;;;;;;;30.80;25.80;;;;;;;4.56;54.66;100026.57;111327;1241;21956;-68
2024/04/24 00:10:55;;;;;;;32.90;27.00;;;;;;;4.53;54.76;100021.83;111197;1252;21955;-68
2024/04/24 00:13:24;;;;;;;33.80;26.90;;;;;;;4.54;54.86;100015.52;111323;1252;21951;-69
2024/04/24 00:15:53;;;;;;;31.00;25.30;;;;;;;4.57;54.86;100017.48;111221;1252;21949;-67
2024/04/24 00:18:23;;;;;;;33.90;26.20;;;;;;;4.55;55.02;100014.41;111302;1252;22025;-68
2024/04/24 00:20:55;;;;;;;29.60;24.40;;;;;;;4.53;54.91;100013.13;111310;1252;21948;-67
2024/04/24 00:23:24;;;;;;;28.10;23.50;;;;;;;4.50;54.89;100010.48;111253;1252;22730;-67
2024/04/24 00:25:56;;;;;;;31.00;24.90;;;;;;;4.47;54.95;100005.20;111347;1252;21951;-67
2024/04/24 00:28:25;;;;;;;31.10;25.00;;;;;;;4.46;54.86;100002.83;111311;1252;22051;-68
2024/04/24 00:31:01;;;;;;;31.40;24.80;;;;;;;4.46;54.87;100000.75;111381;1252;23652;-67
2024/04/24 00:33:29;;;;;;;28.90;23.70;;;;;;;4.44;55.06;99999.61;111265;1252;21965;-67
2024/04/24 00:35:58;;;;;;;28.60;25.30;;;;;;;4.42;55.09;99993.46;111007;1252;21967;-67
2024/04/24 00:38:27;;;;;;;30.30;24.30;;;;;;;4.40;54.93;99991.80;111263;1252;23696;-67
2024/04/24 00:40:56;;;;;;;29.60;23.50;;;;;;;4.39;55.25;99989.59;111194;1252;25042;-69
2024/04/24 00:43:25;;;;;;;26.60;23.80;;;;;;;4.40;55.29;99987.78;111213;1252;22756;-67
2024/04/24 00:45:58;;;;;;;28.50;23.50;;;;;;;4.41;55.39;99980.79;111260;1252;21950;-67
2024/04/24 00:48:27;;;;;;;28.50;23.70;;;;;;;4.42;55.37;99974.95;111338;1252;23683;-67
2024/04/24 00:50:59;;;;;;;33.30;23.20;;;;;;;4.42;55.38;99976.54;111273;1252;22435;-67
2024/04/24 00:53:27;;;;;;;29.40;23.30;;;;;;;4.43;55.47;99974.58;110945;1252;167343;-67
2024/04/24 00:55:57;;;;;;;27.00;21.60;;;;;;;4.44;55.50;99973.99;110939;1252;22014;-68
2024/04/24 00:58:26;;;;;;;30.80;22.40;;;;;;;4.44;55.41;99966.48;111081;1252;21943;-68
2024/04/24 01:00:56;;;;;;;29.00;23.10;;;;;;;4.46;55.33;99964.83;111322;1244;23030;-68
2024/04/24 01:03:25;;;;;;;28.10;22.80;;;;;;;4.47;55.17;99963.55;111253;1252;23601;-68
2024/04/24 01:05:54;;;;;;;24.10;21.50;;;;;;;4.48;55.13;99959.86;111353;1252;21959;-68
2024/04/24 01:08:23;;;;;;;24.20;21.60;;;;;;;4.47;55.10;99957.11;111271;1252;21957;-67
2024/04/24 01:10:56;;;;;;;25.80;22.20;;;;;;;4.47;55.04;99952.07;111277;1252;21962;-67
2024/04/24 01:13:26;;;;;;;23.70;20.70;;;;;;;4.45;55.14;99945.86;111203;1252;21959;-67
2024/04/24 01:16:08;;;;;;;24.70;19.90;;;;;;;4.46;55.26;99942.15;111256;1249;23621;-67
2024/04/24 01:18:47;;;;;;;23.50;21.10;;;;;;;4.46;55.16;99934.86;111288;1252;21937;-67
2024/04/24 01:21:17;;;;;;;21.80;19.50;;;;;;;4.46;55.32;99933.61;111221;1252;21967;-66
2024/04/24 01:24:20;;;;;;;22.70;19.20;;;;;;;4.49;55.29;99925.95;111051;1252;21949;-67
2024/04/24 01:26:50;;;;;;;22.50;19.90;;;;;;;4.51;55.43;99922.39;111230;1252;23693;-67
2024/04/24 01:29:19;;;;;;;21.40;18.90;;;;;;;4.53;55.41;99916.88;111012;1252;24306;-67
2024/04/24 01:31:48;;;;;;;19.90;17.90;;;;;;;4.56;55.50;99914.64;111033;1252;21962;-66
2024/04/24 01:34:17;;;;;;;24.00;19.50;;;;;;;4.57;55.29;99912.31;111338;1252;21950;-66
2024/04/24 01:36:46;;;;;;;23.60;21.10;;;;;;;4.57;55.29;99909.56;111268;1252;21955;-67
2024/04/24 01:39:15;;;;;;;26.10;21.20;;;;;;;4.57;55.29;99902.58;111318;1252;21949;-66
2024/04/24 01:41:44;;;;;;;24.70;22.00;;;;;;;4.58;55.50;99901.46;111261;1252;21959;-67
2024/04/24 01:44:12;;;;;;;27.60;23.30;;;;;;;4.60;55.55;99900.66;111051;1252;21962;-67
2024/04/24 01:46:41;;;;;;;27.40;23.00;;;;;;;4.62;55.40;99900.02;111304;1252;21957;-68
2024/04/24 01:49:10;;;;;;;23.20;20.70;;;;;;;4.64;55.41;99901.48;111294;1252;23125;-67
2024/04/24 01:51:39;;;;;;;25.10;22.50;;;;;;;4.65;55.43;99898.11;110988;1252;22141;-67
2024/04/24 01:54:08;;;;;;;23.70;21.10;;;;;;;4.67;55.53;99896.78;111295;1252;21957;-68
2024/04/24 01:56:37;;;;;;;25.70;20.70;;;;;;;4.70;55.62;99893.67;111356;1252;21972;-65
2024/04/24 01:59:06;;;;;;;23.10;20.20;;;;;;;4.70;55.45;99889.47;110819;1257;21981;-67
2024/04/24 02:01:35;;;;;;;23.60;20.50;;;;;;;4.70;55.56;99886.14;110820;1257;21955;-67
2024/04/24 02:04:04;;;;;;;22.80;20.30;;;;;;;4.70;55.38;99883.91;110737;1257;21959;-67
2024/04/24 02:06:33;;;;;;;23.60;20.80;;;;;;;4.69;55.43;99886.21;110810;1257;21954;-67
2024/04/24 02:09:02;;;;;;;22.50;20.10;;;;;;;4.68;55.53;99884.72;110739;1257;21965;-69
2024/04/24 02:11:31;;;;;;;22.00;19.80;;;;;;;4.66;55.36;99877.86;110807;1257;22100;-67
2024/04/24 02:14:03;;;;;;;24.10;21.50;;;;;;;4.63;55.56;99877.29;110809;1257;22254;-67
2024/04/24 02:16:32;;;;;;;23.10;20.40;;;;;;;4.62;55.63;99877.73;110838;1252;22089;-67
2024/04/24 02:19:01;;;;;;;24.40;20.50;;;;;;;4.60;55.43;99877.13;111290;1251;21955;-67
2024/04/24 02:21:30;;;;;;;24.30;21.20;;;;;;;4.57;55.58;99877.09;111383;1252;23683;-67
2024/04/24 02:24:00;;;;;;;21.90;19.30;;;;;;;4.58;55.72;99872.32;111244;1252;21957;-66
2024/04/24 02:26:29;;;;;;;22.70;19.90;;;;;;;4.58;55.93;99869.88;110980;1252;21963;-68
2024/04/24 02:28:57;;;;;;;26.10;18.60;;;;;;;4.58;55.86;99867.10;111280;1252;21990;-67
2024/04/24 02:31:26;;;;;;;21.80;19.30;;;;;;;4.57;55.74;99864.90;111322;1252;21970;-67
2024/04/24 02:33:55;;;;;;;22.10;19.80;;;;;;;4.55;55.77;99859.95;111316;1252;21989;-67
2024/04/24 02:36:24;;;;;;;23.00;20.70;;;;;;;4.50;55.60;99853.94;111271;1252;21949;-67
2024/04/24 02:38:53;;;;;;;24.30;21.70;;;;;;;4.46;55.77;99851.15;111029;1252;21942;-67
2024/04/24 02:41:22;;;;;;;23.10;20.70;;;;;;;4.44;55.62;99850.20;111258;1252;21955;-66
2024/04/24 02:43:51;;;;;;;24.00;21.50;;;;;;;4.42;55.68;99846.31;111027;1252;21948;-66
2024/04/24 02:46:20;;;;;;;24.70;21.00;;;;;;;4.39;55.88;99846.13;111309;1252;21950;-67
2024/04/24 02:48:48;;;;;;;23.40;20.80;;;;;;;4.37;56.04;99844.86;111399;1252;21957;-67
2024/04/24 02:51:17;;;;;;;22.90;20.50;;;;;;;4.35;56.03;99844.27;111272;1252;21950;-69
2024/04/24 02:53:46;;;;;;;24.90;20.70;;;;;;;4.32;56.14;99841.65;111317;1252;22033;-70
2024/04/24 02:56:15;;;;;;;22.70;20.30;;;;;;;4.30;56.31;99840.16;111400;1252;22038;-68
2024/04/24 02:58:44;;;;;;;23.20;20.40;;;;;;;4.28;56.37;99835.06;111295;1252;21955;-66
2024/04/24 03:01:13;;;;;;;23.90;21.30;;;;;;;4.23;56.49;99827.99;111292;1252;21947;-67
2024/04/24 03:03:42;;;;;;;27.40;22.20;;;;;;;4.20;56.59;99827.96;111279;1252;21960;-68
2024/04/24 03:06:11;;;;;;;26.30;23.40;;;;;;;4.16;56.70;99828.34;111278;1252;24107;-67
2024/04/24 03:08:40;;;;;;;32.70;26.50;;;;;;;4.12;57.02;99825.94;111310;1252;21950;-68
2024/04/24 03:11:09;;;;;;;40.80;30.50;;;;;;;4.08;57.23;99822.31;111237;1252;23566;-68
2024/04/24 03:13:38;;;;;;;36.90;29.50;;;;;;;4.03;57.10;99823.62;111278;1244;22773;-69
2024/04/24 03:16:07;;;;;;;38.90;30.80;;;;;;;4.00;57.21;99816.27;111259;1252;21939;-67
2024/04/24 03:18:35;;;;;;;34.70;29.90;;;;;;;3.94;57.32;99812.75;111294;1252;21972;-67
2024/04/24 03:21:04;;;;;;;36.90;29.10;;;;;;;3.91;57.46;99808.89;111084;1252;21951;-67
2024/04/24 03:23:33;;;;;;;35.90;29.30;;;;;;;3.88;57.83;99806.64;111286;1252;21995;-68
2024/04/24 03:26:06;;;;;;;35.30;26.70;;;;;;;3.85;58.10;99807.99;111361;1252;21968;-67
2024/04/24 03:28:35;;;;;;;36.50;26.90;;;;;;;3.82;58.29;99806.21;111258;1252;23745;-67
2024/04/24 03:31:04;;;;;;;32.70;27.00;;;;;;;3.80;58.61;99803.56;111252;1252;21952;-68
2024/04/24 03:33:33;;;;;;;38.40;30.30;;;;;;;3.79;58.89;99805.19;111310;1252;21954;-68
2024/04/24 03:36:02;;;;;;;31.30;27.30;;;;;;;3.78;58.98;99799.48;111279;1252;21955;-68
2024/04/24 03:38:30;;;;;;;33.00;27.80;;;;;;;3.77;59.21;99794.48;111431;1252;21993;-67
2024/04/24 03:40:59;;;;;;;35.50;27.90;;;;;;;3.75;59.36;99791.60;110434;1259;21961;-67
2024/04/24 03:43:30;;;;;;;40.00;29.00;;;;;;;3.74;59.56;99792.17;110424;1259;21971;-67
2024/04/24 03:45:59;;;;;;;35.50;27.90;;;;;;;3.72;59.72;99788.61;110482;1259;21960;-67
2024/04/24 03:48:28;;;;;;;34.40;26.50;;;;;;;3.70;59.53;99787.35;110461;1259;22026;-67
2024/04/24 03:50:57;;;;;;;30.70;24.60;;;;;;;3.66;59.37;99781.80;110517;1259;21962;-68
2024/04/24 03:53:26;;;;;;;27.60;23.60;;;;;;;3.62;59.37;99775.39;110482;1259;21967;-68
2024/04/24 03:55:55;;;;;;;27.10;22.70;;;;;;;3.58;59.38;99776.11;110495;1259;21954;-69
2024/04/24 03:58:24;;;;;;;23.20;20.80;;;;;;;3.55;59.50;99772.09;110446;1252;24148;-67
2024/04/24 04:00:53;;;;;;;26.60;22.80;;;;;;;3.53;59.57;99766.98;111273;1252;21949;-68
2024/04/24 04:03:22;;;;;;;29.10;26.00;;;;;;;3.51;59.70;99764.08;111374;1252;21946;-67
2024/04/24 04:05:51;;;;;;;25.30;22.70;;;;;;;3.50;59.79;99763.96;111333;1252;21949;-68
2024/04/24 04:08:22;;;;;;;26.80;23.90;;;;;;;3.49;59.77;99763.17;111352;1252;22161;-68
2024/04/24 04:10:51;;;;;;;25.80;23.10;;;;;;;3.47;59.70;99759.27;111249;1252;21972;-67
2024/04/24 04:13:20;;;;;;;27.80;22.30;;;;;;;3.46;59.77;99754.42;111316;1244;21983;-68
2024/04/24 04:15:49;;;;;;;28.40;23.10;;;;;;;3.46;59.97;99757.77;111208;1252;21961;-69
2024/04/24 04:18:17;;;;;;;25.00;22.30;;;;;;;3.48;59.92;99756.08;111266;1252;21950;-69
2024/04/24 04:20:47;;;;;;;28.90;23.20;;;;;;;3.52;60.05;99756.41;111074;1252;21984;-69
2024/04/24 04:23:16;;;;;;;27.10;21.90;;;;;;;3.58;60.04;99760.31;111307;1252;21973;-68
2024/04/24 04:25:44;;;;;;;32.50;24.50;;;;;;;3.63;60.04;99756.90;111336;1252;21952;-68
2024/04/24 04:28:13;;;;;;;29.10;23.20;;;;;;;3.69;60.03;99759.21;111305;1252;21962;-68
2024/04/24 04:30:42;;;;;;;26.70;22.40;;;;;;;3.74;60.03;99758.07;110974;1252;21995;-66
2024/04/24 04:33:11;;;;;;;25.60;22.50;;;;;;;3.80;60.00;99754.64;111253;1252;21967;-67
2024/04/24 04:35:40;;;;;;;34.60;23.40;;;;;;;3.86;59.83;99752.92;111284;1244;21961;-67
2024/04/24 04:38:09;;;;;;;26.90;23.50;;;;;;;3.92;59.82;99749.80;111193;1252;21940;-68
2024/04/24 04:40:38;;;;;;;26.00;23.10;;;;;;;4.00;59.67;99744.71;111245;1252;21938;-67
2024/04/24 04:43:07;;;;;;;27.50;24.70;;;;;;;4.06;59.50;99744.73;111288;1252;22056;-67
2024/04/24 04:45:36;;;;;;;26.50;23.70;;;;;;;4.12;59.50;99741.48;111289;1252;21969;-69
2024/04/24 04:48:08;;;;;;;27.30;24.40;;;;;;;4.20;59.26;99739.08;111347;1244;21949;-68
2024/04/24 04:50:37;;;;;;;;;;;;;;;4.30;59.03;99736.48;111303;1252;21935;-68
2024/04/24 04:53:06;;;;;;;30.10;24.80;;;;;;;4.33;59.28;99734.94;111345;1252;23584;-68
2024/04/24 04:55:35;;;;;;;26.20;23.40;;;;;;;4.44;59.27;99732.56;111251;1252;21957;-68
2024/04/24 04:58:04;;;;;;;26.20;23.40;;;;;;;4.59;58.96;99726.52;111283;1251;22664;-68
2024/04/24 05:00:33;;;;;;;27.40;24.60;;;;;;;4.72;58.53;99728.79;111311;1252;23051;-68
2024/04/24 05:03:02;;;;;;;28.90;25.30;;;;;;;4.82;58.21;99732.18;111302;1252;21952;-70
2024/04/24 05:05:31;;;;;;;33.50;27.70;;;;;;;4.91;57.83;99732.18;111313;1252;21961;-68
2024/04/24 05:08:00;;;;;;;30.40;27.40;;;;;;;4.99;57.67;99729.86;111339;1252;21958;-68
2024/04/24 05:10:29;;;;;;;31.80;28.60;;;;;;;5.04;57.32;99731.70;111237;1252;24300;-68
2024/04/24 05:12:58;;;;;;;31.80;28.40;;;;;;;5.05;57.11;99731.10;111277;1252;21950;-67
2024/04/24 05:15:26;;;;;;;31.90;28.40;;;;;;;5.06;57.03;99724.39;111277;1252;21948;-68
2024/04/24 05:17:55;;;;;;;32.70;29.40;;;;;;;5.13;56.85;99718.90;111314;1252;21953;-68
2024/04/24 05:20:25;;;;;;;33.20;29.80;;;;;;;5.20;56.96;99717.98;111259;1252;21956;-67
2024/04/24 05:23:00;;;;;;;35.60;29.60;;;;;;;5.28;56.65;99715.27;111372;1252;23570;-68
2024/04/24 05:25:32;;;;;;;40.40;33.50;;;;;;;5.38;56.50;99715.88;111284;1252;21968;-68
2024/04/24 05:30:48;;;;;;;34.40;28.00;;;;;;;5.46;55.96;99706.31;111283;1252;21949;-69
2024/04/24 05:33:17;;;;;;;33.30;28.10;;;;;;;5.57;56.15;99703.24;111389;1252;22417;-68
2024/04/24 05:35:46;;;;;;;36.30;26.50;;;;;;;5.65;55.98;99695.80;111295;1252;21965;-68
2024/04/24 05:38:15;;;;;;;33.90;26.80;;;;;;;5.72;55.42;99690.13;111318;1252;22051;-69
2024/04/24 05:40:44;;;;;;;29.30;26.20;;;;;;;5.78;55.64;99689.41;111259;1252;21949;-68
2024/04/24 05:43:13;;;;;;;30.80;26.50;;;;;;;5.83;55.18;99690.14;111292;1252;21989;-69
2024/04/24 05:45:44;;;;;;;33.00;27.90;;;;;;;5.94;55.32;99691.76;111117;1252;22071;-68
2024/04/24 05:48:13;;;;;;;29.90;26.70;;;;;;;6.10;55.53;99690.80;111272;1252;21959;-69
2024/04/24 05:50:42;;;;;;;30.00;26.10;;;;;;;6.24;55.32;99685.70;111099;1252;21965;-68
2024/04/24 05:53:11;;;;;;;28.20;24.80;;;;;;;6.34;54.86;99685.61;111267;1252;21946;-68
2024/04/24 05:55:40;;;;;;;31.30;28.00;;;;;;;6.37;54.56;99682.63;111322;1252;22660;-68
2024/04/24 05:58:09;;;;;;;30.30;27.20;;;;;;;6.38;54.60;99683.61;111209;1252;22046;-68
2024/04/24 06:00:38;;;;;;;32.00;27.60;;;;;;;6.40;54.08;99680.15;111246;1252;21950;-69
2024/04/24 06:03:07;;;;;;;31.80;27.90;;;;;;;6.44;54.56;99683.75;111216;1252;21959;-68
2024/04/24 06:05:36;;;;;;;34.10;30.70;;;;;;;6.54;54.61;99689.59;111287;1252;22041;-70
2024/04/24 06:08:06;;;;;;;28.30;24.90;;;;;;;6.64;54.25;99683.71;111383;1252;21952;-67
2024/04/24 06:10:35;;;;;;;31.30;26.30;;;;;;;6.67;53.84;99676.16;111276;1252;21953;-68
2024/04/24 06:13:04;;;;;;;35.00;28.30;;;;;;;6.70;53.78;99674.39;111332;1252;21975;-69
2024/04/24 06:15:33;;;;;;;32.70;28.90;;;;;;;6.77;53.91;99672.55;111292;1252;21962;-69
2024/04/24 06:18:04;;;;;;;29.90;26.80;;;;;;;6.91;53.75;99675.30;111443;1252;22734;-68
2024/04/24 06:20:33;;;;;;;33.90;28.80;;;;;;;7.06;53.76;99675.86;111509;1252;23016;-69
2024/04/24 06:23:03;;;;;;;36.10;32.40;;;;;;;7.20;53.25;99674.06;111418;1252;21955;-71
2024/04/24 06:25:32;;;;;;;33.50;30.00;;;;;;;7.29;53.24;99668.20;111405;1252;22989;-70
2024/04/24 06:28:01;;;;;;;30.50;27.10;;;;;;;7.31;53.04;99660.73;111445;1252;22006;-71
2024/04/24 06:30:29;;;;;;;31.00;27.80;;;;;;;7.36;53.11;99656.37;111168;1252;21978;-72
2024/04/24 06:33:02;;;;;;;31.30;26.70;;;;;;;7.59;53.19;99649.85;111332;1252;21952;-71
2024/04/24 06:35:32;;;;;;;28.70;25.80;;;;;;;8.06;52.61;99650.28;111389;1252;23569;-72
2024/04/24 06:38:02;;;;;;;27.30;24.40;;;;;;;8.57;51.62;99651.54;111380;1252;22053;-71
2024/04/24 06:40:31;;;;;;;28.60;25.50;;;;;;;9.08;50.68;99653.91;111205;1252;21955;-72
2024/04/24 06:43:01;;;;;;;27.70;24.70;;;;;;;9.55;49.34;99646.98;111240;1252;21953;-70
2024/04/24 06:45:30;;;;;;;28.60;25.20;;;;;;;9.97;48.25;99645.12;111334;1252;21962;-72
2024/04/24 06:47:59;;;;;;;31.10;27.80;;;;;;;10.40;47.48;99643.33;111221;1252;23676;-73
2024/04/24 06:50:28;;;;;;;28.00;25.30;;;;;;;10.81;46.54;99637.84;111579;1252;21953;-72
2024/04/24 06:52:57;;;;;;;26.70;22.30;;;;;;;11.17;45.98;99634.14;111275;1252;21961;-72
2024/04/24 06:55:26;;;;;;;24.00;21.60;;;;;;;11.50;45.15;99634.55;111346;1252;21953;-74
2024/04/24 06:57:55;;;;;;;24.70;21.30;;;;;;;11.79;44.62;99635.38;111233;1252;21998;-71
2024/04/24 07:00:30;;;;;;;22.60;20.10;;;;;;;12.04;43.79;99630.80;111288;1252;21956;-72
2024/04/24 07:02:59;;;;;;;29.90;21.60;;;;;;;12.14;43.37;99630.48;111289;1252;23657;-71
2024/04/24 07:05:28;;;;;;;24.70;21.50;;;;;;;12.11;43.22;99629.97;111401;1252;23589;-72
2024/04/24 07:07:57;;;;;;;23.80;21.40;;;;;;;12.10;43.21;99628.17;111502;1252;21950;-73
2024/04/24 07:10:26;;;;;;;24.20;21.70;;;;;;;12.03;42.92;99631.38;111493;1252;22999;-72
2024/04/24 07:12:54;;;;;;;23.50;21.20;;;;;;;11.87;43.23;99627.84;111222;1252;21952;-72
2024/04/24 07:15:23;;;;;;;25.40;23.00;;;;;;;11.80;43.28;99625.93;111237;1252;23049;-70
2024/04/24 07:17:52;;;;;;;24.10;21.50;;;;;;;11.82;43.30;99618.34;111078;1252;21951;-70
2024/04/24 07:20:21;;;;;;;26.60;23.80;;;;;;;11.87;43.27;99616.34;111356;1252;23598;-70
2024/04/24 07:22:50;;;;;;;24.60;21.40;;;;;;;12.01;43.47;99613.38;111314;1252;23013;-70
2024/04/24 07:25:19;;;;;;;23.80;21.40;;;;;;;12.16;42.90;99617.34;111304;1252;21958;-71
2024/04/24 07:27:48;;;;;;;26.00;23.40;;;;;;;12.26;43.10;99618.24;111271;1252;21953;-71
2024/04/24 07:30:18;;;;;;;23.80;21.10;;;;;;;12.27;42.79;99616.34;111490;1252;21949;-71
2024/04/24 07:32:47;;;;;;;23.30;21.20;;;;;;;12.22;42.64;99617.56;111309;1252;23569;-70
2024/04/24 07:35:16;;;;;;;25.20;22.60;;;;;;;12.13;43.02;99610.41;111303;1252;21949;-70
2024/04/24 07:37:45;;;;;;;24.20;21.70;;;;;;;12.05;43.15;99606.45;111205;1252;22200;-72
2024/04/24 07:40:14;;;;;;;24.30;21.80;;;;;;;11.97;42.93;99605.96;111234;1252;21954;-71
2024/04/24 07:42:44;;;;;;;23.10;20.80;;;;;;;12.01;43.07;99603.89;111296;1252;21956;-71
2024/04/24 07:45:13;;;;;;;24.00;21.20;;;;;;;12.06;43.09;99601.37;111583;1252;21992;-70
2024/04/24 07:47:42;;;;;;;23.90;21.60;;;;;;;12.06;42.84;99596.23;111270;1252;21970;-70
2024/04/24 07:50:11;;;;;;;22.90;20.80;;;;;;;12.06;42.90;99596.04;111239;1252;21960;-71
2024/04/24 07:52:40;;;;;;;25.00;20.60;;;;;;;12.08;43.23;99596.52;111357;1252;21957;-71
2024/04/24 07:55:08;;;;;;;24.70;22.10;;;;;;;12.18;43.12;99594.73;111221;1252;21950;-70
2024/04/24 07:57:37;;;;;;;22.60;20.50;;;;;;;12.30;42.88;99597.04;111293;1252;21948;-70
2024/04/24 08:00:07;;;;;;;24.20;21.70;;;;;;;12.37;42.37;99594.29;111317;1252;21947;-70
2024/04/24 08:02:39;;;;;;;30.20;22.70;;;;;;;12.38;42.14;99594.40;111304;1252;21950;-72
2024/04/24 08:05:08;;;;;;;23.00;20.60;;;;;;;12.35;42.23;99591.61;111305;1252;21946;-70
2024/04/24 08:07:37;;;;;;;24.80;21.70;;;;;;;12.32;42.40;99591.59;111372;1252;21949;-70
2024/04/24 08:10:09;;;;;;;25.00;22.20;;;;;;;12.31;42.21;99588.36;111114;1252;21949;-70
2024/04/24 08:12:38;;;;;;;24.80;22.30;;;;;;;12.34;42.42;99586.08;111258;1252;21962;-71
2024/04/24 08:15:07;;;;;;;25.40;22.90;;;;;;;12.43;42.20;99583.33;111280;1252;22065;-70
2024/04/24 08:17:36;;;;;;;24.80;22.40;;;;;;;12.53;42.15;99581.05;111295;1252;21953;-70
2024/04/24 08:20:06;;;;;;;24.60;21.80;;;;;;;12.56;42.38;99580.94;111305;1252;21969;-70
2024/04/24 08:22:36;;;;;;;24.10;21.60;;;;;;;12.58;42.66;99582.57;111341;1252;21955;-69
2024/04/24 08:25:06;;;;;;;24.80;20.90;;;;;;;12.59;42.66;99579.31;111280;1252;21958;-69
2024/04/24 08:27:34;;;;;;;24.00;21.60;;;;;;;12.62;42.78;99576.02;111030;1252;23103;-69
2024/04/24 08:30:04;;;;;;;25.40;22.90;;;;;;;12.63;42.50;99574.13;111272;1252;21952;-70
2024/04/24 08:32:33;;;;;;;23.10;20.80;;;;;;;12.66;41.90;99574.06;111311;1252;22261;-70
2024/04/24 08:35:03;;;;;;;25.10;22.70;;;;;;;12.69;41.90;99566.12;111289;1252;21968;-69
2024/04/24 08:37:32;;;;;;;25.60;22.40;;;;;;;12.70;41.79;99564.61;111345;1252;23686;-70
2024/04/24 08:40:01;;;;;;;25.90;22.00;;;;;;;12.78;42.06;99563.05;111296;1252;21994;-70
2024/04/24 08:42:31;;;;;;;20.80;18.80;;;;;;;12.94;41.73;99557.67;111336;1252;24170;-69
2024/04/24 08:45:00;;;;;;;20.60;18.60;;;;;;;13.07;40.90;99552.39;111149;1252;23609;-70
2024/04/24 08:47:31;;;;;;;22.60;20.20;;;;;;;13.12;40.84;99548.77;111304;1252;21960;-70
2024/04/24 08:50:00;;;;;;;23.80;21.40;;;;;;;13.17;41.01;99548.34;111049;1252;23604;-70
2024/04/24 08:52:30;;;;;;;22.50;20.20;;;;;;;13.23;40.83;99544.05;111295;1252;22037;-71
2024/04/24 08:55:03;;;;;;;25.30;19.50;;;;;;;13.28;40.84;99541.66;111082;1252;21952;-70
2024/04/24 08:57:33;;;;;;;22.00;19.90;;;;;;;13.44;40.68;99542.73;111129;1252;21953;-70
2024/04/24 09:00:03;;;;;;;21.20;19.30;;;;;;;13.57;40.38;99539.38;111312;1252;21959;-70
2024/04/24 09:02:39;;;;;;;21.20;19.00;;;;;;;13.67;40.42;99537.88;111330;1252;23009;-70
2024/04/24 09:05:10;;;;;;;17.50;15.80;;;;;;;13.77;39.96;99542.99;111021;1252;21947;-70
2024/04/24 09:07:41;;;;;;;17.10;15.30;;;;;;;13.78;39.53;99542.16;111268;1252;21929;-71
2024/04/24 09:10:11;;;;;;;18.60;16.80;;;;;;;13.74;39.39;99538.80;111285;1252;21969;-70
2024/04/24 09:12:40;;;;;;;20.80;18.70;;;;;;;13.69;40.01;99534.39;110975;1252;23059;-70
2024/04/24 09:15:09;;;;;;;17.60;16.00;;;;;;;13.76;39.74;99532.45;110950;1252;21981;-71
2024/04/24 09:17:38;;;;;;;19.00;16.90;;;;;;;13.81;39.02;99535.33;111270;1252;23560;-71
2024/04/24 09:20:08;;;;;;;18.30;16.60;;;;;;;13.81;39.01;99536.36;111282;1252;23683;-69
2024/04/24 09:22:36;;;;;;;18.10;16.30;;;;;;;13.82;38.74;99533.15;111314;1252;23017;-70
2024/04/24 09:25:05;;;;;;;19.40;17.40;;;;;;;13.87;38.98;99528.52;111247;1252;21953;-70
2024/04/24 09:27:34;;;;;;;15.80;14.00;;;;;;;13.95;38.56;99527.95;111301;1252;21921;-70
2024/04/24 09:30:04;;;;;;;17.00;15.50;;;;;;;13.97;37.46;99524.73;111269;1252;21951;-70
2024/04/24 09:32:33;;;;;;;19.90;14.00;;;;;;;14.01;37.48;99524.53;111367;1252;23025;-69
2024/04/24 09:35:02;;;;;;;20.20;14.70;;;;;;;14.07;36.90;99518.15;111386;1252;22578;-69
2024/04/24 09:37:33;;;;;;;15.20;13.80;;;;;;;14.07;36.63;99518.35;111254;1252;21950;-71
2024/04/24 09:40:10;;;;;;;17.00;15.20;;;;;;;14.04;36.47;99517.36;110977;1252;23382;-69
2024/04/24 09:42:39;;;;;;;16.30;14.80;;;;;;;14.00;36.75;99513.30;111306;1252;21955;-71
2024/04/24 09:45:09;;;;;;;16.50;14.90;;;;;;;13.95;36.68;99511.15;111297;1252;23679;-70
2024/04/24 09:47:44;;;;;;;15.80;14.10;;;;;;;13.88;36.77;99505.56;111120;1252;21964;-70
2024/04/24 09:50:13;;;;;;;16.30;14.80;;;;;;;13.88;36.94;99506.31;111279;1252;21960;-70
2024/04/24 09:52:49;;;;;;;16.80;15.40;;;;;;;13.91;36.67;99506.14;111302;1252;23671;-68
2024/04/24 09:55:20;;;;;;;17.20;15.70;;;;;;;13.93;36.39;99501.38;111328;1252;21964;-69
2024/04/24 09:57:57;;;;;;;16.90;15.40;;;;;;;13.90;36.34;99499.96;111041;1252;21952;-69
2024/04/24 10:00:26;;;;;;;18.60;16.90;;;;;;;13.88;36.55;99496.98;111229;1252;22743;-68
2024/04/24 10:03:02;;;;;;;16.50;14.90;;;;;;;13.85;36.81;99497.19;111255;1252;21954;-70
2024/04/24 10:05:34;;;;;;;18.40;16.10;;;;;;;13.82;36.95;99495.63;111355;1252;23598;-69
2024/04/24 10:08:28;;;;;;;18.90;17.10;;;;;;;13.76;36.78;99493.56;111016;1252;22043;-70
2024/04/24 10:11:00;;;;;;;21.00;19.10;;;;;;;13.64;36.82;99491.55;111267;1252;21953;-70
2024/04/24 10:13:35;;;;;;;;;;;;;;;13.58;37.20;99485.25;111316;1252;21948;-69
2024/04/24 10:16:04;;;;;;;22.00;19.40;;;;;;;13.39;37.39;99485.89;111294;1252;22115;-70
2024/04/24 10:18:35;;;;;;;20.50;17.90;;;;;;;13.28;37.52;99483.42;111319;1252;22112;-69
2024/04/24 10:21:07;;;;;;;28.20;23.70;;;;;;;13.20;37.36;99479.65;111360;1241;23013;-68
2024/04/24 10:23:37;;;;;;;20.30;17.90;;;;;;;13.15;37.16;99477.73;111287;1252;21958;-69
2024/04/24 10:26:10;;;;;;;18.60;16.60;;;;;;;13.12;37.55;99471.85;111257;1248;21953;-69
2024/04/24 10:28:40;;;;;;;20.00;17.30;;;;;;;13.13;37.65;99466.99;111132;1252;21954;-69
2024/04/24 10:31:11;;;;;;;30.30;18.80;;;;;;;13.14;37.64;99464.60;111230;1252;22713;-70
2024/04/24 10:33:42;;;;;;;19.00;17.20;;;;;;;13.17;37.61;99461.31;111076;1252;21953;-69
2024/04/24 10:36:11;;;;;;;18.50;16.70;;;;;;;13.20;37.44;99458.24;111284;1252;23675;-69
2024/04/24 10:38:45;;;;;;;19.00;16.80;;;;;;;13.22;37.71;99455.73;111393;1252;23846;-70
2024/04/24 10:41:14;;;;;;;18.40;15.70;;;;;;;13.28;37.87;99460.42;111243;1244;21951;-68
2024/04/24 10:43:43;;;;;;;23.40;17.70;;;;;;;13.35;37.38;99458.20;111246;1252;21998;-68
2024/04/24 10:46:18;;;;;;;17.30;15.50;;;;;;;13.38;37.10;99459.66;111292;1252;21953;-71
2024/04/24 10:48:58;;;;;;;17.30;15.70;;;;;;;13.34;36.95;99453.15;111277;1252;21955;-69
2024/04/24 10:51:30;;;;;;;17.10;15.40;;;;;;;13.32;37.04;99449.70;111233;1252;23716;-69
2024/04/24 10:54:08;;;;;;;16.90;15.30;;;;;;;13.29;37.26;99447.17;111244;1252;21958;-71
2024/04/24 10:56:42;;;;;;;18.30;16.50;;;;;;;13.24;37.74;99446.37;111518;1252;21948;-70
2024/04/24 10:59:11;;;;;;;19.40;17.30;;;;;;;13.20;37.83;99445.29;111334;1252;21955;-70
2024/04/24 11:01:45;;;;;;;18.20;16.40;;;;;;;13.17;37.32;99445.47;111340;1252;21949;-70
2024/04/24 11:04:25;;;;;;;18.00;16.10;;;;;;;13.03;37.31;99439.16;111228;1252;21957;-68
2024/04/24 11:06:54;;;;;;;17.00;15.50;;;;;;;12.95;37.49;99440.41;111362;1252;21953;-69
2024/04/24 11:09:24;;;;;;;18.90;16.10;;;;;;;12.91;37.83;99441.35;111280;1240;23029;-70
2024/04/24 11:11:56;;;;;;;17.40;15.70;;;;;;;12.91;37.95;99440.56;111336;1252;23676;-70
2024/04/24 11:14:25;;;;;;;22.70;20.30;;;;;;;12.85;37.61;99442.77;111028;1252;23676;-70
2024/04/24 11:16:57;;;;;;;25.00;18.50;;;;;;;12.74;37.90;99442.20;111302;1252;23473;-70
2024/04/24 11:19:26;;;;;;;17.40;15.50;;;;;;;12.69;38.10;99437.55;111289;1252;21968;-69
2024/04/24 11:21:55;;;;;;;18.50;16.60;;;;;;;12.68;37.94;99437.50;111319;1252;22046;-69
2024/04/24 11:24:32;;;;;;;16.90;15.40;;;;;;;12.69;37.97;99437.61;111292;1252;21956;-68
2024/04/24 11:27:02;;;;;;;17.10;15.40;;;;;;;12.68;37.71;99440.35;111267;1252;24096;-69
2024/04/24 11:29:38;;;;;;;17.70;16.10;;;;;;;12.65;37.87;99434.73;111333;1252;25100;-70